sensor_id;sensor_type;location;lat;lon;timestamp;pressure;altitude;pressure_sealevel;temperature;humidity
65359;BME280;52491;45.900;6.346;2022-08-21T00:00:40;94008.16;;;26.20;40.84
65359;BME280;52491;45.900;6.346;2022-08-21T00:03:07;94005.47;;;26.20;41.26
65359;BME280;52491;45.900;6.346;2022-08-21T00:05:38;94005.47;;;26.20;40.80
65359;BME280;52491;45.900;6.346;2022-08-21T00:08:04;94005.47;;;26.20;40.91
65359;BME280;52491;45.900;6.346;2022-08-21T00:10:30;94004.69;;;26.19;41.05
65359;BME280;52491;45.900;6.346;2022-08-21T00:12:56;94016.16;;;26.20;40.69
65359;BME280;52491;45.900;6.346;2022-08-21T00:15:28;94009.75;;;26.21;40.78
65359;BME280;52491;45.900;6.346;2022-08-21T00:17:54;94003.06;;;26.18;40.81
65359;BME280;52491;45.900;6.346;2022-08-21T00:20:21;94003.88;;;26.19;40.59
65359;BME280;52491;45.900;6.346;2022-08-21T00:22:47;93998.81;;;26.17;40.87
65359;BME280;52491;45.900;6.346;2022-08-21T00:25:14;94002.28;;;26.18;40.81
65359;BME280;52491;45.900;6.346;2022-08-21T00:27:40;93998.00;;;26.17;40.66
65359;BME280;52491;45.900;6.346;2022-08-21T00:30:13;94002.28;;;26.18;40.63
65359;BME280;52491;45.900;6.346;2022-08-21T00:32:39;94004.16;;;26.17;40.59
65359;BME280;52491;45.900;6.346;2022-08-21T00:35:07;94000.69;;;26.17;40.59
65359;BME280;52491;45.900;6.346;2022-08-21T00:37:33;94005.22;;;26.16;40.93
65359;BME280;52491;45.900;6.346;2022-08-21T00:39:59;94002.56;;;26.16;40.78
65359;BME280;52491;45.900;6.346;2022-08-21T00:42:25;94000.69;;;26.17;40.53
65359;BME280;52491;45.900;6.346;2022-08-21T00:44:51;93998.25;;;26.15;40.81
65359;BME280;52491;45.900;6.346;2022-08-21T00:47:18;94002.56;;;26.16;40.69
65359;BME280;52491;45.900;6.346;2022-08-21T00:49:44;93999.06;;;26.16;40.65
65359;BME280;52491;45.900;6.346;2022-08-21T00:52:16;93994.53;;;26.16;40.49
65359;BME280;52491;45.900;6.346;2022-08-21T00:54:43;93999.34;;;26.14;40.64
65359;BME280;52491;45.900;6.346;2022-08-21T00:57:24;93994.53;;;26.16;40.69
65359;BME280;52491;45.900;6.346;2022-08-21T00:59:54;93994.00;;;26.14;40.64
65359;BME280;52491;45.900;6.346;2022-08-21T01:02:21;93998.25;;;26.15;40.60
65359;BME280;52491;45.900;6.346;2022-08-21T01:04:47;93990.53;;;26.14;40.51
65359;BME280;52491;45.900;6.346;2022-08-21T01:07:13;93990.53;;;26.14;40.39
65359;BME280;52491;45.900;6.346;2022-08-21T01:09:39;93994.00;;;26.14;40.60
65359;BME280;52491;45.900;6.346;2022-08-21T01:12:06;93990.00;;;26.11;40.39
65359;BME280;52491;45.900;6.346;2022-08-21T01:14:32;93983.56;;;26.12;40.28
65359;BME280;52491;45.900;6.346;2022-08-21T01:16:59;93982.78;;;26.12;40.26
65359;BME280;52491;45.900;6.346;2022-08-21T01:19:26;93985.44;;;26.12;40.11
65359;BME280;52491;45.900;6.346;2022-08-21T01:21:52;93988.91;;;26.12;40.09
65359;BME280;52491;45.900;6.346;2022-08-21T01:24:19;93983.84;;;26.11;40.16
65359;BME280;52491;45.900;6.346;2022-08-21T01:26:46;93986.53;;;26.11;40.51
65359;BME280;52491;45.900;6.346;2022-08-21T01:31:50;93980.38;;;26.10;40.16
65359;BME280;52491;45.900;6.346;2022-08-21T01:34:15;93980.38;;;26.10;40.45
65359;BME280;52491;45.900;6.346;2022-08-21T01:36:42;93982.25;;;26.10;40.01
65359;BME280;52491;45.900;6.346;2022-08-21T01:39:08;93977.72;;;26.10;40.19
65359;BME280;52491;45.900;6.346;2022-08-21T01:41:34;93971.84;;;26.08;39.94
65359;BME280;52491;45.900;6.346;2022-08-21T01:44:00;93977.72;;;26.10;40.13
65359;BME280;52491;45.900;6.346;2022-08-21T01:46:25;93975.31;;;26.09;40.13
65359;BME280;52491;45.900;6.346;2022-08-21T01:48:51;93969.16;;;26.08;39.95
65359;BME280;52491;45.900;6.346;2022-08-21T01:51:17;93967.28;;;26.09;40.00
65359;BME280;52491;45.900;6.346;2022-08-21T01:53:42;93960.34;;;26.08;40.19
65359;BME280;52491;45.900;6.346;2022-08-21T01:56:11;93957.69;;;26.08;40.03
65359;BME280;52491;45.900;6.346;2022-08-21T01:58:38;93957.69;;;26.08;40.04
65359;BME280;52491;45.900;6.346;2022-08-21T02:01:03;93953.38;;;26.07;39.73
65359;BME280;52491;45.900;6.346;2022-08-21T02:03:29;93950.72;;;26.07;39.92
65359;BME280;52491;45.900;6.346;2022-08-21T02:05:55;93961.41;;;26.07;39.91
65359;BME280;52491;45.900;6.346;2022-08-21T02:08:21;93959.53;;;26.07;40.14
65359;BME280;52491;45.900;6.346;2022-08-21T02:10:49;93952.59;;;26.06;40.19
65359;BME280;52491;45.900;6.346;2022-08-21T02:13:15;93951.81;;;26.06;39.71
65359;BME280;52491;45.900;6.346;2022-08-21T02:15:41;93952.88;;;26.05;39.85
65359;BME280;52491;45.900;6.346;2022-08-21T02:18:06;93951.81;;;26.06;39.93
65359;BME280;52491;45.900;6.346;2022-08-21T02:20:42;93950.22;;;26.05;39.71
65359;BME280;52491;45.900;6.346;2022-08-21T02:23:09;93949.13;;;26.06;39.60
65359;BME280;52491;45.900;6.346;2022-08-21T02:25:36;93950.22;;;26.05;40.08
65359;BME280;52491;45.900;6.346;2022-08-21T02:28:08;93949.13;;;26.06;39.65
65359;BME280;52491;45.900;6.346;2022-08-21T02:30:38;93944.88;;;26.05;39.97
65359;BME280;52491;45.900;6.346;2022-08-21T02:33:04;93950.22;;;26.05;39.77
65359;BME280;52491;45.900;6.346;2022-08-21T02:35:30;93948.34;;;26.05;39.73
65359;BME280;52491;45.900;6.346;2022-08-21T02:37:59;93944.88;;;26.05;39.88
65359;BME280;52491;45.900;6.346;2022-08-21T02:40:28;93946.72;;;26.04;39.66
65359;BME280;52491;45.900;6.346;2022-08-21T02:42:56;93939.00;;;26.03;40.02
65359;BME280;52491;45.900;6.346;2022-08-21T02:45:22;93940.88;;;26.02;39.52
65359;BME280;52491;45.900;6.346;2022-08-21T02:47:55;93944.34;;;26.03;39.62
65359;BME280;52491;45.900;6.346;2022-08-21T02:50:27;93945.13;;;26.03;39.47
65359;BME280;52491;45.900;6.346;2022-08-21T02:52:53;93946.22;;;26.02;39.98
65359;BME280;52491;45.900;6.346;2022-08-21T02:55:23;93944.34;;;26.03;39.70
65359;BME280;52491;45.900;6.346;2022-08-21T02:57:50;93947.81;;;26.03;39.76
65359;BME280;52491;45.900;6.346;2022-08-21T03:00:16;93948.06;;;26.02;39.61
65359;BME280;52491;45.900;6.346;2022-08-21T03:02:42;93951.56;;;26.02;39.55
65359;BME280;52491;45.900;6.346;2022-08-21T03:05:09;93942.72;;;26.02;39.52
65359;BME280;52491;45.900;6.346;2022-08-21T03:07:36;93941.13;;;26.01;39.81
65359;BME280;52491;45.900;6.346;2022-08-21T03:10:03;93945.66;;;26.00;39.60
65359;BME280;52491;45.900;6.346;2022-08-21T03:12:29;93946.47;;;26.01;39.71
65359;BME280;52491;45.900;6.346;2022-08-21T03:14:55;93946.47;;;26.01;39.82
65359;BME280;52491;45.900;6.346;2022-08-21T03:17:20;93944.09;;;25.99;39.34
65359;BME280;52491;45.900;6.346;2022-08-21T03:19:46;93938.75;;;25.99;39.36
65359;BME280;52491;45.900;6.346;2022-08-21T03:22:11;93940.59;;;25.99;39.77
65359;BME280;52491;45.900;6.346;2022-08-21T03:24:37;93937.13;;;25.98;39.68
65359;BME280;52491;45.900;6.346;2022-08-21T03:27:03;93938.19;;;25.97;39.71
65359;BME280;52491;45.900;6.346;2022-08-21T03:29:28;93933.66;;;25.98;39.40
65359;BME280;52491;45.900;6.346;2022-08-21T03:31:54;93931.78;;;25.98;39.35
65359;BME280;52491;45.900;6.346;2022-08-21T03:34:20;93929.09;;;25.98;39.67
65359;BME280;52491;45.900;6.346;2022-08-21T03:36:47;93931.78;;;25.98;39.32
65359;BME280;52491;45.900;6.346;2022-08-21T03:39:14;93929.09;;;25.98;39.55
65359;BME280;52491;45.900;6.346;2022-08-21T03:41:40;93933.66;;;25.98;39.60
65359;BME280;52491;45.900;6.346;2022-08-21T03:44:05;93921.38;;;25.97;39.40
65359;BME280;52491;45.900;6.346;2022-08-21T03:46:31;93925.09;;;25.96;39.28
65359;BME280;52491;45.900;6.346;2022-08-21T03:48:56;93927.53;;;25.97;39.63
65359;BME280;52491;45.900;6.346;2022-08-21T03:51:22;93923.22;;;25.96;39.34
65359;BME280;52491;45.900;6.346;2022-08-21T03:53:48;93922.44;;;25.96;39.18
65359;BME280;52491;45.900;6.346;2022-08-21T03:56:13;93926.97;;;25.95;39.50
65359;BME280;52491;45.900;6.346;2022-08-21T03:58:41;93927.78;;;25.96;39.12
65359;BME280;52491;45.900;6.346;2022-08-21T04:01:07;93921.63;;;25.95;39.02
65359;BME280;52491;45.900;6.346;2022-08-21T04:03:34;93917.88;;;25.96;39.13
65359;BME280;52491;45.900;6.346;2022-08-21T04:06:00;93921.63;;;25.95;39.49
65359;BME280;52491;45.900;6.346;2022-08-21T04:08:26;93912.81;;;25.95;39.30
65359;BME280;52491;45.900;6.346;2022-08-21T04:10:53;93925.09;;;25.96;39.04
65359;BME280;52491;45.900;6.346;2022-08-21T04:13:20;93930.72;;;25.94;39.05
65359;BME280;52491;45.900;6.346;2022-08-21T04:15:46;93932.63;;;25.94;39.23
65359;BME280;52491;45.900;6.346;2022-08-21T04:18:11;93931.78;;;25.93;39.33
65359;BME280;52491;45.900;6.346;2022-08-21T04:20:38;93938.75;;;25.94;39.53
65359;BME280;52491;45.900;6.346;2022-08-21T04:23:05;93935.53;;;25.92;39.37
65359;BME280;52491;45.900;6.346;2022-08-21T04:25:31;93942.47;;;25.93;39.54
65359;BME280;52491;45.900;6.346;2022-08-21T04:27:57;93944.34;;;25.93;38.98
65359;BME280;52491;45.900;6.346;2022-08-21T04:30:24;93939.28;;;25.91;39.13
65359;BME280;52491;45.900;6.346;2022-08-21T04:32:50;93945.16;;;25.93;39.02
65359;BME280;52491;45.900;6.346;2022-08-21T04:35:19;93947.81;;;25.93;39.12
65359;BME280;52491;45.900;6.346;2022-08-21T04:37:46;93948.91;;;25.92;39.40
65359;BME280;52491;45.900;6.346;2022-08-21T04:40:13;93939.28;;;25.91;39.03
65359;BME280;52491;45.900;6.346;2022-08-21T04:42:51;93938.47;;;25.90;38.99
65359;BME280;52491;45.900;6.346;2022-08-21T04:45:44;93940.63;;;25.88;39.27
65359;BME280;52491;45.900;6.346;2022-08-21T04:48:12;93942.22;;;25.89;38.87
65359;BME280;52491;45.900;6.346;2022-08-21T04:50:47;93932.31;;;25.90;38.87
65359;BME280;52491;45.900;6.346;2022-08-21T04:53:18;93930.75;;;25.89;39.33
65359;BME280;52491;45.900;6.346;2022-08-21T04:55:44;93934.50;;;25.88;39.26
65359;BME280;52491;45.900;6.346;2022-08-21T04:58:13;93936.09;;;25.89;39.25
65359;BME280;52491;45.900;6.346;2022-08-21T05:00:40;93938.22;;;25.87;39.03
65359;BME280;52491;45.900;6.346;2022-08-21T05:03:07;93940.63;;;25.88;39.05
65359;BME280;52491;45.900;6.346;2022-08-21T05:05:34;93944.09;;;25.89;38.83
65359;BME280;52491;45.900;6.346;2022-08-21T05:08:02;93937.66;;;25.90;38.71
65359;BME280;52491;45.900;6.346;2022-08-21T05:10:28;93944.09;;;25.89;38.74
65359;BME280;52491;45.900;6.346;2022-08-21T05:12:56;93939.84;;;25.88;38.79
65359;BME280;52491;45.900;6.346;2022-08-21T05:15:22;93939.00;;;25.87;38.74
65359;BME280;52491;45.900;6.346;2022-08-21T05:17:48;93940.09;;;25.86;39.13
65359;BME280;52491;45.900;6.346;2022-08-21T05:20:15;93940.88;;;25.87;39.03
65359;BME280;52491;45.900;6.346;2022-08-21T05:22:41;93942.75;;;25.86;38.63
65359;BME280;52491;45.900;6.346;2022-08-21T05:25:09;93937.69;;;25.85;38.76
65359;BME280;52491;45.900;6.346;2022-08-21T05:27:35;93941.97;;;25.86;38.83
65359;BME280;52491;45.900;6.346;2022-08-21T05:30:02;93936.63;;;25.86;38.56
65359;BME280;52491;45.900;6.346;2022-08-21T05:32:28;93940.09;;;25.86;38.99
65359;BME280;52491;45.900;6.346;2022-08-21T05:34:54;93939.28;;;25.86;38.99
65359;BME280;52491;45.900;6.346;2022-08-21T05:37:20;93930.50;;;25.85;38.76
65359;BME280;52491;45.900;6.346;2022-08-21T05:39:45;93930.50;;;25.85;38.78
65359;BME280;52491;45.900;6.346;2022-08-21T05:42:11;93935.00;;;25.85;38.84
65359;BME280;52491;45.900;6.346;2022-08-21T05:44:37;93931.53;;;25.84;38.85
65359;BME280;52491;45.900;6.346;2022-08-21T05:47:07;93936.88;;;25.84;38.61
65359;BME280;52491;45.900;6.346;2022-08-21T05:49:33;93928.06;;;25.84;38.81
65359;BME280;52491;45.900;6.346;2022-08-21T05:51:59;93931.00;;;25.82;38.94
65359;BME280;52491;45.900;6.346;2022-08-21T05:54:26;93923.00;;;25.82;38.70
65359;BME280;52491;45.900;6.346;2022-08-21T05:56:51;93923.81;;;25.83;38.63
65359;BME280;52491;45.900;6.346;2022-08-21T05:59:17;93924.84;;;25.82;38.87
65359;BME280;52491;45.900;6.346;2022-08-21T06:01:43;93924.84;;;25.82;38.68
65359;BME280;52491;45.900;6.346;2022-08-21T06:04:11;93920.06;;;25.84;38.61
65359;BME280;52491;45.900;6.346;2022-08-21T06:06:36;93921.66;;;25.85;38.71
65359;BME280;52491;45.900;6.346;2022-08-21T06:09:03;93915.25;;;25.86;38.92
65359;BME280;52491;45.900;6.346;2022-08-21T06:11:30;93910.19;;;25.84;38.68
65359;BME280;52491;45.900;6.346;2022-08-21T06:13:56;93921.66;;;25.85;38.72
65359;BME280;52491;45.900;6.346;2022-08-21T06:16:22;93912.59;;;25.86;39.11
65359;BME280;52491;45.900;6.346;2022-08-21T06:18:48;93916.06;;;25.86;39.08
65359;BME280;52491;45.900;6.346;2022-08-21T06:21:14;93912.06;;;25.84;38.79
65359;BME280;52491;45.900;6.346;2022-08-21T06:23:41;93907.25;;;25.86;38.61
65359;BME280;52491;45.900;6.346;2022-08-21T06:26:07;93906.16;;;25.87;38.60
65359;BME280;52491;45.900;6.346;2022-08-21T06:28:33;93894.69;;;25.86;38.83
65359;BME280;52491;45.900;6.346;2022-08-21T06:30:59;93894.16;;;25.84;38.99
65359;BME280;52491;45.900;6.346;2022-08-21T06:33:25;93890.69;;;25.84;38.90
65359;BME280;52491;45.900;6.346;2022-08-21T06:35:51;93885.34;;;25.84;38.67
65359;BME280;52491;45.900;6.346;2022-08-21T06:38:16;93883.75;;;25.83;38.85
65359;BME280;52491;45.900;6.346;2022-08-21T06:40:42;93888.00;;;25.84;38.63
65359;BME280;52491;45.900;6.346;2022-08-21T06:43:10;93890.69;;;25.84;38.77
65359;BME280;52491;45.900;6.346;2022-08-21T06:45:37;93890.69;;;25.84;39.02
65359;BME280;52491;45.900;6.346;2022-08-21T06:48:03;93887.44;;;25.82;38.61
65359;BME280;52491;45.900;6.346;2022-08-21T06:50:29;93884.78;;;25.82;38.71
65359;BME280;52491;45.900;6.346;2022-08-21T06:53:08;93882.09;;;25.82;38.63
65359;BME280;52491;45.900;6.346;2022-08-21T06:55:35;93888.53;;;25.81;39.02
65359;BME280;52491;45.900;6.346;2022-08-21T06:58:02;93882.66;;;25.79;39.26
65359;BME280;52491;45.900;6.346;2022-08-21T07:00:28;93882.66;;;25.79;39.11
65359;BME280;52491;45.900;6.346;2022-08-21T07:02:54;93884.28;;;25.80;38.96
65359;BME280;52491;45.900;6.346;2022-08-21T07:05:20;93884.53;;;25.78;39.11
65359;BME280;52491;45.900;6.346;2022-08-21T07:07:46;93876.81;;;25.77;38.90
65359;BME280;52491;45.900;6.346;2022-08-21T07:10:12;93882.66;;;25.79;38.72
65359;BME280;52491;45.900;6.346;2022-08-21T07:12:38;93881.06;;;25.78;38.79
65359;BME280;52491;45.900;6.346;2022-08-21T07:15:04;93882.94;;;25.77;39.15
65359;BME280;52491;45.900;6.346;2022-08-21T07:17:30;93888.28;;;25.77;38.96
65359;BME280;52491;45.900;6.346;2022-08-21T07:19:55;93891.75;;;25.78;39.02
65359;BME280;52491;45.900;6.346;2022-08-21T07:22:22;93904.31;;;25.77;39.10
65359;BME280;52491;45.900;6.346;2022-08-21T07:24:48;93900.84;;;25.77;39.47
65359;BME280;52491;45.900;6.346;2022-08-21T07:27:13;93895.50;;;25.77;39.62
65359;BME280;52491;45.900;6.346;2022-08-21T07:29:39;93897.34;;;25.76;39.40
65359;BME280;52491;45.900;6.346;2022-08-21T07:32:05;93897.63;;;25.75;39.48
65359;BME280;52491;45.900;6.346;2022-08-21T07:34:32;93905.63;;;25.75;39.18
65359;BME280;52491;45.900;6.346;2022-08-21T07:36:58;93897.63;;;25.75;39.50
65359;BME280;52491;45.900;6.346;2022-08-21T07:39:24;93890.66;;;25.74;39.65
65359;BME280;52491;45.900;6.346;2022-08-21T07:41:50;93896.00;;;25.74;39.69
65359;BME280;52491;45.900;6.346;2022-08-21T07:44:17;93901.09;;;25.75;40.03
65359;BME280;52491;45.900;6.346;2022-08-21T07:46:42;93900.28;;;25.75;39.44
65359;BME280;52491;45.900;6.346;2022-08-21T07:49:08;93893.34;;;25.74;39.76
65359;BME280;52491;45.900;6.346;2022-08-21T07:51:34;93893.88;;;25.76;40.03
65359;BME280;52491;45.900;6.346;2022-08-21T07:54:00;93893.09;;;25.75;39.99
65359;BME280;52491;45.900;6.346;2022-08-21T07:56:27;93894.16;;;25.74;40.16
65359;BME280;52491;45.900;6.346;2022-08-21T07:58:54;93894.97;;;25.75;40.13
65359;BME280;52491;45.900;6.346;2022-08-21T08:01:21;93893.34;;;25.74;40.55
65359;BME280;52491;45.900;6.346;2022-08-21T08:03:47;93892.28;;;25.75;40.05
65359;BME280;52491;45.900;6.346;2022-08-21T08:06:13;93888.00;;;25.74;40.39
65359;BME280;52491;45.900;6.346;2022-08-21T08:08:40;93880.28;;;25.72;40.34
65359;BME280;52491;45.900;6.346;2022-08-21T08:11:09;93882.41;;;25.75;40.59
65359;BME280;52491;45.900;6.346;2022-08-21T08:13:42;93881.31;;;25.76;40.32
65359;BME280;52491;45.900;6.346;2022-08-21T08:16:08;93882.16;;;25.77;40.46
65359;BME280;52491;45.900;6.346;2022-08-21T08:18:34;93881.06;;;25.78;40.35
65359;BME280;52491;45.900;6.346;2022-08-21T08:21:02;93881.59;;;25.80;40.23
65359;BME280;52491;45.900;6.346;2022-08-21T08:23:28;93871.97;;;25.79;40.67
65359;BME280;52491;45.900;6.346;2022-08-21T08:25:56;93870.09;;;25.79;40.25
65359;BME280;52491;45.900;6.346;2022-08-21T08:28:21;93867.41;;;25.79;40.69
65359;BME280;52491;45.900;6.346;2022-08-21T08:30:47;93870.09;;;25.79;40.50
65359;BME280;52491;45.900;6.346;2022-08-21T08:33:14;93864.50;;;25.81;40.39
65359;BME280;52491;45.900;6.346;2022-08-21T08:35:41;93859.94;;;25.81;40.69
65359;BME280;52491;45.900;6.346;2022-08-21T08:38:07;93852.72;;;25.82;40.81
65359;BME280;52491;45.900;6.346;2022-08-21T08:40:47;93857.28;;;25.81;40.78
65359;BME280;52491;45.900;6.346;2022-08-21T08:43:17;93855.41;;;25.82;40.80
65359;BME280;52491;45.900;6.346;2022-08-21T08:45:47;93846.38;;;25.83;40.79
65359;BME280;52491;45.900;6.346;2022-08-21T08:48:25;93849.81;;;25.83;40.88
65359;BME280;52491;45.900;6.346;2022-08-21T08:50:57;93845.28;;;25.84;40.80
65359;BME280;52491;45.900;6.346;2022-08-21T08:53:41;93841.03;;;25.83;40.56
65359;BME280;52491;45.900;6.346;2022-08-21T08:56:11;93837.28;;;25.84;40.67
65359;BME280;52491;45.900;6.346;2022-08-21T08:58:39;93837.81;;;25.86;41.00
65359;BME280;52491;45.900;6.346;2022-08-21T09:01:18;93831.94;;;25.84;41.08
65359;BME280;52491;45.900;6.346;2022-08-21T09:03:46;93829.25;;;25.84;41.11
65359;BME280;52491;45.900;6.346;2022-08-21T09:09:03;93825.78;;;25.83;40.63
65359;BME280;52491;45.900;6.346;2022-08-21T09:11:48;93822.03;;;25.84;40.57
65359;BME280;52491;45.900;6.346;2022-08-21T09:14:37;93813.78;;;25.86;40.81
65359;BME280;52491;45.900;6.346;2022-08-21T09:20:12;93810.56;;;25.84;40.67
65359;BME280;52491;45.900;6.346;2022-08-21T09:25:20;93800.13;;;25.87;40.71
65359;BME280;52491;45.900;6.346;2022-08-21T09:27:48;93800.94;;;25.88;40.59
65359;BME280;52491;45.900;6.346;2022-08-21T09:30:15;93799.06;;;25.88;40.97
65359;BME280;52491;45.900;6.346;2022-08-21T09:32:41;93789.44;;;25.87;40.90
65359;BME280;52491;45.900;6.346;2022-08-21T09:35:16;93792.94;;;25.88;41.04
65359;BME280;52491;45.900;6.346;2022-08-21T09:40:43;93789.19;;;25.89;40.93
65359;BME280;52491;45.900;6.346;2022-08-21T09:45:44;93774.47;;;25.92;40.48
65359;BME280;52491;45.900;6.346;2022-08-21T09:48:15;93775.00;;;25.94;40.69
65359;BME280;52491;45.900;6.346;2022-08-21T09:50:43;93767.78;;;25.94;40.52
65359;BME280;52491;45.900;6.346;2022-08-21T09:53:20;93762.44;;;25.94;40.76
65359;BME280;52491;45.900;6.346;2022-08-21T09:55:51;93762.94;;;25.96;40.56
65359;BME280;52491;45.900;6.346;2022-08-21T09:58:38;93758.44;;;25.97;40.57
65359;BME280;52491;45.900;6.346;2022-08-21T10:01:05;93754.69;;;25.98;40.87
65359;BME280;52491;45.900;6.346;2022-08-21T10:03:32;93763.47;;;25.98;40.84
65359;BME280;52491;45.900;6.346;2022-08-21T10:05:59;93741.84;;;26.00;40.67
65359;BME280;52491;45.900;6.346;2022-08-21T10:08:27;93749.56;;;26.01;40.44
65359;BME280;52491;45.900;6.346;2022-08-21T10:11:02;93739.19;;;26.00;40.79
65359;BME280;52491;45.900;6.346;2022-08-21T10:13:43;93736.22;;;26.01;40.64
65359;BME280;52491;45.900;6.346;2022-08-21T10:16:34;93732.50;;;26.02;40.74
65359;BME280;52491;45.900;6.346;2022-08-21T10:25:02;93723.41;;;26.03;40.39
65359;BME280;52491;45.900;6.346;2022-08-21T10:27:40;93720.72;;;26.03;40.75
65359;BME280;52491;45.900;6.346;2022-08-21T10:30:15;93715.13;;;26.05;40.53
65359;BME280;52491;45.900;6.346;2022-08-21T10:35:37;93717.22;;;26.08;40.47
65359;BME280;52491;45.900;6.346;2022-08-21T10:48:37;93706.47;;;26.13;40.81
65359;BME280;52491;45.900;6.346;2022-08-21T10:51:20;93703.03;;;26.07;40.71
65359;BME280;52491;45.900;6.346;2022-08-21T10:54:00;93691.28;;;26.14;40.48
65359;BME280;52491;45.900;6.346;2022-08-21T10:56:33;93693.66;;;26.15;40.42
65359;BME280;52491;45.900;6.346;2022-08-21T11:02:09;93712.09;;;26.17;40.83
65359;BME280;52491;45.900;6.346;2022-08-21T11:07:22;93691.25;;;26.19;40.48
65359;BME280;52491;45.900;6.346;2022-08-21T11:09:51;93696.28;;;26.20;40.53
65359;BME280;52491;45.900;6.346;2022-08-21T11:12:30;93694.16;;;26.22;40.79
65359;BME280;52491;45.900;6.346;2022-08-21T11:15:11;93685.34;;;26.22;40.47
65359;BME280;52491;45.900;6.346;2022-08-21T11:17:47;93689.59;;;26.23;40.56
65359;BME280;52491;45.900;6.346;2022-08-21T11:22:58;93682.38;;;26.23;40.36
65359;BME280;52491;45.900;6.346;2022-08-21T11:25:37;93675.16;;;26.24;40.30
65359;BME280;52491;45.900;6.346;2022-08-21T11:28:10;93685.56;;;26.25;40.69
65359;BME280;52491;45.900;6.346;2022-08-21T11:33:27;93671.13;;;26.26;40.76
65359;BME280;52491;45.900;6.346;2022-08-21T11:52:33;93674.06;;;26.30;40.69
65359;BME280;52491;45.900;6.346;2022-08-21T11:55:06;93673.75;;;26.31;40.41
65359;BME280;52491;45.900;6.346;2022-08-21T12:00:31;93678.59;;;26.29;40.53
65359;BME280;52491;45.900;6.346;2022-08-21T12:05:53;93678.31;;;26.31;40.25
65359;BME280;52491;45.900;6.346;2022-08-21T12:08:35;93675.34;;;26.32;40.34
65359;BME280;52491;45.900;6.346;2022-08-21T12:11:09;93665.47;;;26.33;40.42
65359;BME280;52491;45.900;6.346;2022-08-21T12:13:51;93671.88;;;26.32;40.53
65359;BME280;52491;45.900;6.346;2022-08-21T12:16:30;93669.75;;;26.34;40.42
65359;BME280;52491;45.900;6.346;2022-08-21T12:19:14;93664.38;;;26.34;40.48
65359;BME280;52491;45.900;6.346;2022-08-21T12:30:18;93661.44;;;26.36;40.39
65359;BME280;52491;45.900;6.346;2022-08-21T12:32:54;93655.03;;;26.37;40.63
65359;BME280;52491;45.900;6.346;2022-08-21T12:35:31;93665.97;;;26.35;40.53
65359;BME280;52491;45.900;6.346;2022-08-21T12:38:26;93680.16;;;26.36;40.63
65359;BME280;52491;45.900;6.346;2022-08-21T12:43:41;93664.91;;;26.36;40.62
65359;BME280;52491;45.900;6.346;2022-08-21T12:46:22;93657.69;;;26.37;40.36
65359;BME280;52491;45.900;6.346;2022-08-21T12:49:06;93662.25;;;26.36;40.24
65359;BME280;52491;45.900;6.346;2022-08-21T12:54:31;93671.06;;;26.37;40.40
65359;BME280;52491;45.900;6.346;2022-08-21T12:57:00;93675.03;;;26.39;40.57
65359;BME280;52491;45.900;6.346;2022-08-21T12:59:27;93664.34;;;26.39;40.77
65359;BME280;52491;45.900;6.346;2022-08-21T13:01:54;93670.50;;;26.40;40.61
65359;BME280;52491;45.900;6.346;2022-08-21T13:04:32;93663.25;;;26.40;40.49
65359;BME280;52491;45.900;6.346;2022-08-21T13:07:00;93665.66;;;26.42;40.38
65359;BME280;52491;45.900;6.346;2022-08-21T13:09:30;93665.66;;;26.42;40.84
65359;BME280;52491;45.900;6.346;2022-08-21T13:11:58;93650.44;;;26.42;40.45
65359;BME280;52491;45.900;6.346;2022-08-21T13:14:28;93661.63;;;26.44;40.60
65359;BME280;52491;45.900;6.346;2022-08-21T13:16:57;93648.28;;;26.44;40.92
65359;BME280;52491;45.900;6.346;2022-08-21T13:19:26;93650.13;;;26.44;40.50
65359;BME280;52491;45.900;6.346;2022-08-21T13:21:56;93658.16;;;26.44;40.24
65359;BME280;52491;45.900;6.346;2022-08-21T13:24:25;93645.59;;;26.44;40.77
65359;BME280;52491;45.900;6.346;2022-08-21T13:26:54;93642.94;;;26.44;40.46
65359;BME280;52491;45.900;6.346;2022-08-21T13:29:27;93650.94;;;26.44;40.49
65359;BME280;52491;45.900;6.346;2022-08-21T13:32:03;93642.94;;;26.44;40.69
65359;BME280;52491;45.900;6.346;2022-08-21T13:34:37;93645.31;;;26.46;40.62
65359;BME280;52491;45.900;6.346;2022-08-21T13:37:07;93649.88;;;26.45;40.55
65359;BME280;52491;45.900;6.346;2022-08-21T13:39:34;93647.19;;;26.45;40.55
65359;BME280;52491;45.900;6.346;2022-08-21T13:42:03;93657.63;;;26.47;40.32
65359;BME280;52491;45.900;6.346;2022-08-21T13:44:32;93655.22;;;26.45;40.36
65359;BME280;52491;45.900;6.346;2022-08-21T13:47:02;93656.78;;;26.46;40.57
65359;BME280;52491;45.900;6.346;2022-08-21T13:49:34;93650.66;;;26.46;40.57
65359;BME280;52491;45.900;6.346;2022-08-21T13:52:03;93651.44;;;26.46;40.37
65359;BME280;52491;45.900;6.346;2022-08-21T13:54:38;93646.09;;;26.46;40.21
65359;BME280;52491;45.900;6.346;2022-08-21T13:57:19;93644.50;;;26.45;40.47
65359;BME280;52491;45.900;6.346;2022-08-21T13:59:49;93643.44;;;26.46;40.18
65359;BME280;52491;45.900;6.346;2022-08-21T14:02:19;93637.03;;;26.47;40.09
65359;BME280;52491;45.900;6.346;2022-08-21T14:04:57;93645.84;;;26.48;40.42
65359;BME280;52491;45.900;6.346;2022-08-21T14:07:31;93634.84;;;26.49;39.97
65359;BME280;52491;45.900;6.346;2022-08-21T14:10:03;93627.91;;;26.48;39.96
65359;BME280;52491;45.900;6.346;2022-08-21T14:12:38;93642.88;;;26.49;40.00
65359;BME280;52491;45.900;6.346;2022-08-21T14:15:07;93634.84;;;26.49;40.20
65359;BME280;52491;45.900;6.346;2022-08-21T14:17:37;93637.50;;;26.49;40.40
65359;BME280;52491;45.900;6.346;2022-08-21T14:20:10;93640.75;;;26.51;40.33
65359;BME280;52491;45.900;6.346;2022-08-21T14:22:43;93632.72;;;26.51;40.37
65359;BME280;52491;45.900;6.346;2022-08-21T14:28:11;93637.50;;;26.49;40.01
65359;BME280;52491;45.900;6.346;2022-08-21T14:30:41;93637.28;;;26.51;40.42
65359;BME280;52491;45.900;6.346;2022-08-21T14:33:16;93637.28;;;26.51;40.10
65359;BME280;52491;45.900;6.346;2022-08-21T14:35:44;93630.84;;;26.52;39.83